Terminal Aerodrome Forecast
Issued by NWS

Home | Current Version | Previous Version | Graphics & Text | Print | Product List | Glossary On
Versions: 1 2 3 4 5 6 7 8 9 10 11 12 13 14 15 16 17 18 19 20 21 22
000
FTUS43 KABR 230400 AAB
TAFMBG
TAF AMD
KMBG 230421Z 2304/2324 35022G30KT 1SM -SN BLSN OVC010
      TEMPO 2304/2308 3/4SM -SN BLSN OVC007=

USA.gov is the U.S. government's official web portal to all federal, state and local government web resources and services.